Time;durP1;ratioP1;P1;durP2;ratioP2;P2;SDS_P1;SDS_P2;PMS_P1;PMS_P2;Temp;Humidity;BMP_temperature;BMP_pressure;BME280_temperature;BME280_humidity;BME280_pressure;Samples;Min_cycle;Max_cycle;Signal;HPM_P1;HPM_P2
2023/01/16 00:00:12;;;;;;;2.03;1.00;;;;;;;-145.69;100.00;52674.13;5074233;28;20191;-80
2023/01/16 00:02:40;;;;;;;5.13;1.10;;;;;;;-145.69;100.00;52632.53;5074241;28;20212;-80
2023/01/16 00:05:07;;;;;;;2.97;0.90;;;;;;;-145.69;100.00;52674.13;5074412;28;20198;-80
2023/01/16 00:07:34;;;;;;;2.80;0.90;;;;;;;-145.69;100.00;52646.41;5074221;28;20210;-81
2023/01/16 00:10:00;;;;;;;9.00;1.23;;;;;;;-145.69;100.00;52634.50;5074052;28;20194;-80
2023/01/16 00:12:27;;;;;;;3.17;1.03;;;;;;;-145.69;100.00;52618.66;5073606;28;20187;-80
2023/01/16 00:14:53;;;;;;;2.63;1.00;;;;;;;-145.69;100.00;52660.25;5074041;28;20199;-80
2023/01/16 00:17:20;;;;;;;6.07;0.97;;;;;;;-145.69;100.00;52654.31;5073466;28;20226;-80
2023/01/16 00:19:47;;;;;;;5.87;1.20;;;;;;;-145.69;100.00;52670.16;5073589;28;20226;-80
2023/01/16 00:22:14;;;;;;;1.33;0.80;;;;;;;-145.69;100.00;52648.38;5073916;28;20209;-80
2023/01/16 00:24:40;;;;;;;7.23;1.00;;;;;;;-145.69;100.00;52632.53;5073719;28;20199;-81
2023/01/16 00:27:07;;;;;;;6.53;1.30;;;;;;;-145.69;100.00;52618.66;5073900;28;20218;-80
2023/01/16 00:29:34;;;;;;;4.10;1.07;;;;;;;-145.69;100.00;52628.56;5073849;28;20187;-80
2023/01/16 00:32:01;;;;;;;2.63;1.00;;;;;;;-145.69;100.00;52682.03;5073871;28;20207;-80
2023/01/16 00:34:27;;;;;;;1.87;1.00;;;;;;;-145.69;100.00;52630.53;5073904;28;20202;-81
2023/01/16 00:36:55;;;;;;;2.97;1.20;;;;;;;-145.69;100.00;52662.22;5073608;28;20251;-81
2023/01/16 00:39:22;;;;;;;2.87;1.13;;;;;;;-145.69;100.00;52618.66;5073620;28;20672;-80
2023/01/16 00:41:48;;;;;;;2.30;0.97;;;;;;;-145.69;100.00;52632.53;5073780;28;20202;-80
2023/01/16 00:44:16;;;;;;;2.60;0.90;;;;;;;-145.69;100.00;52596.88;5073271;28;20234;-80
2023/01/16 00:46:42;;;;;;;4.77;1.00;;;;;;;-145.69;100.00;52664.22;5073045;28;20289;-80
2023/01/16 00:49:08;;;;;;;2.93;0.80;;;;;;;-145.69;100.00;52628.56;5073490;28;20583;-81
2023/01/16 00:51:35;;;;;;;2.87;0.97;;;;;;;-145.69;100.00;52632.53;5073583;28;20195;-81
2023/01/16 00:54:03;;;;;;;5.77;1.10;;;;;;;-145.69;100.00;52610.75;5073063;28;20733;-80
2023/01/16 00:56:29;;;;;;;2.33;0.87;;;;;;;-145.69;100.00;52616.69;5072689;28;20230;-80
2023/01/16 00:58:56;;;;;;;4.53;1.20;;;;;;;-145.69;100.00;52594.91;5073653;28;20202;-80
2023/01/16 01:01:22;;;;;;;3.63;1.20;;;;;;;-145.69;100.00;52654.31;5073418;28;20201;-80
2023/01/16 01:03:49;;;;;;;3.63;1.00;;;;;;;-145.69;100.00;52622.63;5073447;28;20198;-80
2023/01/16 01:06:15;;;;;;;2.77;0.87;;;;;;;-145.69;100.00;52622.63;5073124;28;20195;-79
2023/01/16 01:08:42;;;;;;;2.57;0.80;;;;;;;-145.69;100.00;52678.09;5073111;28;20198;-80
2023/01/16 01:11:12;;;;;;;9.83;1.10;;;;;;;-145.69;100.00;52594.91;5073349;28;20198;-79
2023/01/16 01:13:39;;;;;;;3.80;1.20;;;;;;;-145.69;100.00;52656.28;5073200;28;20195;-80
2023/01/16 01:16:07;;;;;;;4.37;1.00;;;;;;;-145.69;100.00;52626.59;5072367;28;20207;-81
2023/01/16 01:18:33;;;;;;;3.83;1.10;;;;;;;-145.69;100.00;52638.47;5057868;28;20198;-80
2023/01/16 01:21:00;;;;;;;3.80;1.20;;;;;;;-145.69;100.00;52626.59;5068637;28;20210;-80
2023/01/16 01:23:27;;;;;;;5.70;1.07;;;;;;;-145.69;100.00;52658.28;5053105;28;20192;-80
2023/01/16 01:25:53;;;;;;;1.37;0.97;;;;;;;-145.69;100.00;52626.59;5052998;28;20658;-80
2023/01/16 01:28:21;;;;;;;4.90;1.10;;;;;;;-145.69;100.00;52602.81;5053085;28;20788;-79
2023/01/16 01:30:47;;;;;;;3.53;0.97;;;;;;;-145.69;100.00;52622.63;5052866;28;20278;-80
2023/01/16 01:33:14;;;;;;;8.50;1.00;;;;;;;-145.69;100.00;52612.72;5053149;28;20207;-81
2023/01/16 01:35:40;;;;;;;2.73;1.10;;;;;;;-145.69;100.00;52632.53;5052555;28;20677;-81
2023/01/16 01:38:07;;;;;;;1.80;0.77;;;;;;;-145.69;100.00;52604.81;5052897;28;20586;-80
2023/01/16 01:40:34;;;;;;;3.07;1.03;;;;;;;-145.69;100.00;52634.50;5053867;28;20219;-80
2023/01/16 01:43:01;;;;;;;3.43;0.87;;;;;;;-145.69;100.00;52634.50;5072741;28;20206;-80
2023/01/16 01:45:30;;;;;;;4.13;1.13;;;;;;;-145.69;100.00;52634.50;5072697;28;20190;-80
2023/01/16 01:48:03;;;;;;;2.63;0.93;;;;;;;-145.69;100.00;52628.56;5072653;28;20199;-80
2023/01/16 01:50:39;;;;;;;5.07;0.93;;;;;;;-145.69;100.00;52650.34;5072703;28;20209;-80
2023/01/16 01:53:10;;;;;;;0.97;0.80;;;;;;;-145.69;100.00;52634.50;5072664;28;20527;-80
2023/01/16 01:55:41;;;;;;;2.73;0.90;;;;;;;-145.69;100.00;52630.53;5072681;28;20199;-79
2023/01/16 01:58:08;;;;;;;2.23;0.80;;;;;;;-145.69;100.00;52628.56;5072411;28;20229;-80
2023/01/16 02:00:36;;;;;;;4.20;0.90;;;;;;;-145.69;100.00;52622.63;5072744;28;20220;-79
2023/01/16 02:03:07;;;;;;;3.30;0.90;;;;;;;-145.69;100.00;52650.34;5072900;28;20198;-79
2023/01/16 02:05:38;;;;;;;5.33;0.97;;;;;;;-145.69;100.00;52614.72;5072492;28;20213;-80
2023/01/16 02:08:06;;;;;;;5.60;1.10;;;;;;;-145.69;100.00;52640.44;5072510;28;20206;-80
2023/01/16 02:10:38;;;;;;;1.83;0.87;;;;;;;-145.69;100.00;52608.75;5075885;28;20674;-79
2023/01/16 02:13:05;;;;;;;1.17;0.67;;;;;;;-145.69;100.00;52614.72;5076466;28;20205;-80
2023/01/16 02:15:31;;;;;;;5.67;0.80;;;;;;;-145.69;100.00;52638.47;5076255;28;20201;-80
2023/01/16 02:20:58;;;;;;;2.63;0.97;;;;;;;-145.69;100.00;52628.56;5076382;28;20271;-80
2023/01/16 02:24:03;;;;;;;3.00;1.10;;;;;;;-145.69;100.00;52612.72;5076323;28;20198;-79
2023/01/16 02:26:52;;;;;;;6.00;1.10;;;;;;;-145.69;100.00;52632.53;5071474;28;20201;-80
2023/01/16 02:29:48;;;;;;;3.77;1.13;;;;;;;-145.69;100.00;52652.34;5076036;28;20198;-80
2023/01/16 02:32:30;;;;;;;3.50;0.90;;;;;;;-145.69;100.00;52618.66;5076021;28;20195;-80
2023/01/16 02:35:15;;;;;;;4.13;0.70;;;;;;;-145.69;100.00;52626.59;5076450;28;20568;-80
2023/01/16 02:37:48;;;;;;;4.13;0.77;;;;;;;-145.69;100.00;52666.19;5075338;28;20233;-80
2023/01/16 02:40:28;;;;;;;2.00;0.80;;;;;;;-145.69;100.00;52632.53;5076013;28;20206;-80
2023/01/16 02:43:09;;;;;;;4.13;1.47;;;;;;;-145.69;100.00;52650.34;5075637;28;20319;-79
2023/01/16 02:45:43;;;;;;;2.07;1.00;;;;;;;-145.69;100.00;52642.44;5075760;28;20202;-81
2023/01/16 02:48:17;;;;;;;2.80;0.80;;;;;;;-145.69;100.00;52636.50;5075892;28;20249;-80
2023/01/16 02:50:52;;;;;;;3.50;0.80;;;;;;;-145.69;100.00;52654.31;5075965;28;20202;-81
2023/01/16 02:53:23;;;;;;;4.50;0.97;;;;;;;-145.69;100.00;52583.00;5075786;28;20198;-80
2023/01/16 02:55:54;;;;;;;5.83;1.03;;;;;;;-145.69;100.00;52614.72;5075971;28;20561;-80
2023/01/16 02:58:22;;;;;;;0.97;0.63;;;;;;;-145.69;100.00;52606.78;5075766;28;20223;-80
2023/01/16 03:00:55;;;;;;;5.57;1.30;;;;;;;-145.69;100.00;52614.72;5075062;28;20198;-81
2023/01/16 03:03:39;;;;;;;3.50;1.20;;;;;;;-145.69;100.00;52622.63;5075705;28;20195;-79
2023/01/16 03:06:29;;;;;;;3.37;0.90;;;;;;;-145.69;100.00;52618.66;5061146;28;20198;-81
2023/01/16 03:09:08;;;;;;;3.50;0.80;;;;;;;-145.69;100.00;52626.59;5065077;28;20206;-80
2023/01/16 03:11:42;;;;;;;2.13;0.97;;;;;;;-145.69;100.00;52636.50;5075417;28;20652;-80
2023/01/16 03:14:23;;;;;;;1.10;0.80;;;;;;;-145.69;100.00;52634.50;5056750;28;20199;-80
2023/01/16 03:17:04;;;;;;;6.20;1.10;;;;;;;-145.69;100.00;52630.53;5075489;28;20206;-80
2023/01/16 03:19:44;;;;;;;4.20;1.00;;;;;;;-145.69;100.00;52616.69;5074808;28;20199;-81
2023/01/16 03:22:14;;;;;;;1.83;0.90;;;;;;;-145.69;100.00;52638.47;5071677;28;20203;-80
2023/01/16 03:25:01;;;;;;;1.60;1.07;;;;;;;-145.69;100.00;52650.34;5075013;28;20190;-80
2023/01/16 03:27:39;;;;;;;7.40;1.20;;;;;;;-145.69;100.00;52628.56;5074780;28;20198;-80
2023/01/16 03:30:13;;;;;;;4.73;0.80;;;;;;;-145.69;100.00;52594.91;5075202;28;20198;-80
2023/01/16 03:32:46;;;;;;;2.50;0.90;;;;;;;-145.69;100.00;52632.53;5075122;28;20561;-80
2023/01/16 03:35:20;;;;;;;2.37;1.00;;;;;;;-145.69;100.00;52646.41;5075023;28;20199;-80
2023/01/16 03:37:50;;;;;;;3.13;1.00;;;;;;;-145.69;100.00;52602.81;5072339;28;20226;-80
2023/01/16 03:40:22;;;;;;;3.20;0.83;;;;;;;-145.69;100.00;52642.44;5074880;28;20210;-80
2023/01/16 03:42:54;;;;;;;1.53;1.10;;;;;;;-145.69;100.00;52622.63;5074870;28;20210;-80
2023/01/16 03:45:24;;;;;;;3.17;0.90;;;;;;;-145.69;100.00;52626.59;5074250;28;20249;-80
2023/01/16 03:47:55;;;;;;;2.50;1.10;;;;;;;-145.69;100.00;52626.59;5074792;28;20199;-80
2023/01/16 03:50:29;;;;;;;0.93;0.90;;;;;;;-145.69;100.00;52642.44;5074858;28;20210;-81
2023/01/16 03:53:01;;;;;;;3.13;1.13;;;;;;;-145.69;100.00;52630.53;5074484;28;20210;-79
2023/01/16 03:55:32;;;;;;;1.60;1.00;;;;;;;-145.69;100.00;52666.19;5074258;28;20685;-79
2023/01/16 03:58:04;;;;;;;5.57;1.00;;;;;;;-145.69;100.00;52618.66;5074653;28;20233;-81
2023/01/16 04:00:40;;;;;;;3.20;0.90;;;;;;;-145.69;100.00;52598.84;5074423;28;20203;-81
2023/01/16 04:03:11;;;;;;;2.50;1.00;;;;;;;-145.69;100.00;52646.41;5073256;28;20236;-80
2023/01/16 04:05:52;;;;;;;2.37;1.20;;;;;;;-145.69;100.00;52598.84;5074339;28;20210;-80
2023/01/16 04:08:26;;;;;;;3.93;1.10;;;;;;;-145.69;100.00;52642.44;5054994;28;20199;-81
2023/01/16 04:10:53;;;;;;;4.27;1.00;;;;;;;-145.69;100.00;52606.78;5054187;28;20576;-81
2023/01/16 04:13:25;;;;;;;2.70;1.10;;;;;;;-145.69;100.00;52618.66;5069931;28;20195;-80
2023/01/16 04:15:57;;;;;;;1.30;0.93;;;;;;;-145.69;100.00;52626.59;5074365;28;20199;-80
2023/01/16 04:18:29;;;;;;;2.43;0.80;;;;;;;-145.69;100.00;52624.59;5074743;28;20227;-80
2023/01/16 04:20:57;;;;;;;2.10;1.10;;;;;;;-145.69;100.00;52630.53;5074601;28;20622;-81
2023/01/16 04:23:23;;;;;;;6.20;1.20;;;;;;;-145.69;100.00;52650.34;5074459;28;20203;-81
2023/01/16 04:25:50;;;;;;;1.63;0.90;;;;;;;-145.69;100.00;52618.66;5073916;28;20545;-81
2023/01/16 04:28:23;;;;;;;2.50;0.90;;;;;;;-145.69;100.00;52636.50;5074627;28;20202;-80
2023/01/16 04:30:49;;;;;;;1.37;0.77;;;;;;;-145.69;100.00;52606.78;5073443;28;20290;-81
2023/01/16 04:33:16;;;;;;;1.97;0.90;;;;;;;-145.69;100.00;52638.47;5073414;28;20194;-81
2023/01/16 04:35:42;;;;;;;2.67;0.87;;;;;;;-145.69;100.00;52646.41;5073987;28;20203;-81
2023/01/16 04:38:11;;;;;;;1.80;0.90;;;;;;;-145.69;100.00;52634.50;5073956;28;20276;-81
2023/01/16 04:40:38;;;;;;;3.10;1.03;;;;;;;-145.69;100.00;52644.41;5074348;28;20202;-81
2023/01/16 04:43:04;;;;;;;3.00;1.10;;;;;;;-145.69;100.00;52642.44;5074301;28;20439;-81
2023/01/16 04:45:31;;;;;;;4.30;1.20;;;;;;;-145.69;100.00;52598.84;5074174;28;20203;-81
2023/01/16 04:47:57;;;;;;;4.53;1.27;;;;;;;-145.69;100.00;52634.50;5074370;28;20203;-81
2023/01/16 04:50:24;;;;;;;5.27;1.00;;;;;;;-145.69;100.00;52674.13;5074155;28;20213;-81
2023/01/16 04:52:53;;;;;;;5.60;1.03;;;;;;;-145.69;100.00;52614.72;5074278;28;20198;-81
2023/01/16 04:55:21;;;;;;;1.27;1.00;;;;;;;-145.69;100.00;52630.53;5073692;28;20202;-80
2023/01/16 04:57:48;;;;;;;4.03;1.00;;;;;;;-145.69;100.00;52606.78;5073962;28;20234;-81
2023/01/16 05:00:18;;;;;;;3.47;1.10;;;;;;;-145.69;100.00;52626.59;5073553;28;20195;-82
2023/01/16 05:02:47;;;;;;;4.23;1.10;;;;;;;-145.69;100.00;52640.44;5073420;28;20191;-81
2023/01/16 05:05:13;;;;;;;5.83;1.40;;;;;;;-145.69;100.00;52632.53;5073716;28;20205;-80
2023/01/16 05:07:40;;;;;;;4.00;1.67;;;;;;;-145.69;100.00;52646.41;5073841;28;20202;-81
2023/01/16 05:10:07;;;;;;;2.83;1.33;;;;;;;-145.69;100.00;52630.53;5073426;28;20206;-81
2023/01/16 05:12:35;;;;;;;2.53;1.20;;;;;;;-145.69;100.00;52646.41;5073051;28;20202;-80
2023/01/16 05:15:01;;;;;;;2.43;1.10;;;;;;;-145.69;100.00;52626.59;5073014;28;20675;-81
2023/01/16 05:17:28;;;;;;;2.57;1.17;;;;;;;-145.69;100.00;52630.53;5073306;28;20240;-81
2023/01/16 05:19:57;;;;;;;2.47;1.30;;;;;;;-145.69;100.00;52606.78;5054334;28;20198;-82
2023/01/16 05:22:27;;;;;;;3.90;1.33;;;;;;;-145.69;100.00;52636.50;5053173;28;20195;-82
2023/01/16 05:24:53;;;;;;;4.50;1.53;;;;;;;-145.69;100.00;52622.63;5060404;28;20620;-82
2023/01/16 05:27:20;;;;;;;1.73;1.30;;;;;;;-145.69;100.00;52648.38;5073695;28;20199;-80
2023/01/16 05:29:49;;;;;;;5.80;1.23;;;;;;;-145.69;100.00;52650.34;5073476;28;20198;-81
2023/01/16 05:32:16;;;;;;;1.87;1.10;;;;;;;-145.69;100.00;52626.59;5073192;28;20202;-81
2023/01/16 05:34:43;;;;;;;2.63;1.27;;;;;;;-145.69;100.00;52678.09;5073080;28;20198;-81
2023/01/16 05:37:09;;;;;;;5.10;1.30;;;;;;;-145.69;100.00;52648.38;5072073;28;20446;-81
2023/01/16 05:39:36;;;;;;;2.90;1.10;;;;;;;-145.69;100.00;52616.69;5074507;28;20308;-80
2023/01/16 05:42:02;;;;;;;3.73;1.20;;;;;;;-145.69;100.00;52642.44;5072611;28;20198;-81
2023/01/16 05:44:29;;;;;;;1.47;1.10;;;;;;;-145.69;100.00;52646.41;5072733;28;20233;-81
2023/01/16 05:46:56;;;;;;;3.93;1.10;;;;;;;-145.69;100.00;52642.44;5073563;28;20198;-81
2023/01/16 05:49:23;;;;;;;1.73;1.10;;;;;;;-145.69;100.00;52636.50;5073604;28;20202;-81
2023/01/16 05:51:49;;;;;;;3.03;1.10;;;;;;;-145.69;100.00;52620.66;5073386;28;20202;-81
2023/01/16 05:54:16;;;;;;;2.13;1.30;;;;;;;-145.69;100.00;52634.50;5074530;28;20203;-80
2023/01/16 05:56:43;;;;;;;4.93;1.33;;;;;;;-145.69;100.00;52642.44;5074590;28;20203;-81
2023/01/16 05:59:10;;;;;;;3.93;1.30;;;;;;;-145.69;100.00;52594.91;5075602;28;20222;-81
2023/01/16 06:01:37;;;;;;;2.80;1.20;;;;;;;-145.69;100.00;52630.53;5076421;28;20198;-82
2023/01/16 06:04:05;;;;;;;2.00;1.10;;;;;;;-145.69;100.00;52596.88;5075730;28;20195;-82
2023/01/16 06:06:32;;;;;;;1.47;1.00;;;;;;;-145.69;100.00;52652.34;5076258;28;20649;-81
2023/01/16 06:08:58;;;;;;;3.47;0.90;;;;;;;-145.69;100.00;52634.50;5074580;28;20268;-80
2023/01/16 06:11:24;;;;;;;0.93;0.90;;;;;;;-145.69;100.00;52646.41;5072630;28;20195;-80
2023/01/16 06:13:51;;;;;;;2.43;1.20;;;;;;;-145.69;100.00;52620.66;5072989;28;20203;-80
2023/01/16 06:16:18;;;;;;;1.50;1.07;;;;;;;-145.69;100.00;52626.59;5072753;28;20214;-80
2023/01/16 06:18:46;;;;;;;5.57;1.10;;;;;;;-145.69;100.00;52620.66;5072596;28;20237;-81
2023/01/16 06:21:14;;;;;;;5.43;1.50;;;;;;;-145.69;100.00;52622.63;5075199;28;20218;-80
2023/01/16 06:23:43;;;;;;;2.00;1.10;;;;;;;-145.69;100.00;52666.19;5075286;28;20213;-82
2023/01/16 06:26:09;;;;;;;4.07;1.00;;;;;;;-145.69;100.00;52628.56;5073772;28;20195;-81
2023/01/16 06:28:36;;;;;;;1.60;1.10;;;;;;;-145.69;100.00;52632.53;5073825;28;20210;-80
2023/01/16 06:31:03;;;;;;;1.27;0.90;;;;;;;-145.69;100.00;52626.59;5074252;28;20206;-82
2023/01/16 06:33:32;;;;;;;2.73;1.00;;;;;;;-145.69;100.00;52656.28;5073051;28;20273;-81
2023/01/16 06:36:01;;;;;;;1.33;1.10;;;;;;;-145.69;100.00;52612.72;5074316;28;20255;-81
2023/01/16 06:38:29;;;;;;;1.53;1.00;;;;;;;-145.69;100.00;52618.66;5074244;28;20573;-81
2023/01/16 06:41:01;;;;;;;5.23;1.20;;;;;;;-145.69;100.00;52634.50;5073973;28;20213;-81
2023/01/16 06:43:28;;;;;;;4.73;1.30;;;;;;;-145.69;100.00;52638.47;5074015;28;20590;-81
2023/01/16 06:45:57;;;;;;;1.27;0.90;;;;;;;-145.69;100.00;52650.34;5072300;28;20195;-80
2023/01/16 06:48:24;;;;;;;3.70;1.23;;;;;;;-145.69;100.00;52642.44;5072426;28;20654;-81
2023/01/16 06:50:52;;;;;;;1.00;0.90;;;;;;;-145.69;100.00;52612.72;5072872;28;20203;-80
2023/01/16 06:53:19;;;;;;;2.20;1.13;;;;;;;-145.69;100.00;52646.41;5072153;28;20195;-80
2023/01/16 06:55:47;;;;;;;1.53;1.00;;;;;;;-145.69;100.00;52624.59;5074530;28;20413;-81
2023/01/16 06:58:13;;;;;;;2.07;1.00;;;;;;;-145.69;100.00;52666.19;5076749;28;20278;-81
2023/01/16 07:00:40;;;;;;;1.17;0.90;;;;;;;-145.69;100.00;52634.50;5076245;28;20225;-81
2023/01/16 07:03:06;;;;;;;1.17;1.03;;;;;;;-145.69;100.00;52658.28;5077168;28;20289;-81
2023/01/16 07:05:33;;;;;;;2.07;0.97;;;;;;;-145.69;100.00;52594.91;5079611;28;20661;-81
2023/01/16 07:08:02;;;;;;;0.97;0.77;;;;;;;-145.69;100.00;52626.59;5078312;28;20231;-81
2023/01/16 07:10:29;;;;;;;1.07;0.83;;;;;;;-145.69;100.00;52618.66;5077780;28;20206;-81
2023/01/16 07:12:57;;;;;;;1.10;0.90;;;;;;;-145.69;100.00;52634.50;5078647;28;20228;-80
2023/01/16 07:23:47;;;;;;;3.70;1.00;;;;;;;-145.69;100.00;52646.41;5081932;28;20971;-82
2023/01/16 07:26:17;;;;;;;2.17;0.60;;;;;;;-145.69;98.72;52614.72;5083084;28;20198;-82
2023/01/16 07:28:46;;;;;;;0.90;0.80;;;;;;;-145.69;100.00;52618.66;5076236;28;20199;-80
2023/01/16 07:31:14;;;;;;;0.67;0.67;;;;;;;-145.69;99.78;52616.69;5076202;28;20283;-81
2023/01/16 07:33:40;;;;;;;0.83;0.80;;;;;;;-145.69;100.00;52634.50;5076730;28;20187;-80
2023/01/16 07:36:07;;;;;;;5.13;0.80;;;;;;;-145.69;98.30;52628.56;5075675;28;20680;-80
2023/01/16 07:38:33;;;;;;;2.00;0.63;;;;;;;-145.69;96.10;52579.06;5077235;28;20222;-80
2023/01/16 07:41:00;;;;;;;4.00;0.90;;;;;;;-145.69;97.16;52630.53;5074705;28;20557;-80
2023/01/16 07:43:26;;;;;;;0.70;0.70;;;;;;;-145.69;95.16;52616.69;5055318;28;20231;-80
2023/01/16 07:45:54;;;;;;;0.83;0.53;;;;;;;-145.69;97.82;52650.34;5055228;28;20234;-80
2023/01/16 07:48:24;;;;;;;20.67;6.97;;;;;;;-145.69;94.33;52610.75;5054708;28;20200;-79
2023/01/16 07:50:54;;;;;;;6.43;0.93;;;;;;;-145.69;97.00;52638.47;5054968;28;20203;-80
2023/01/16 07:53:25;;;;;;;0.80;0.80;;;;;;;-145.69;96.59;52606.78;5056429;28;20211;-80
2023/01/16 07:55:53;;;;;;;1.23;0.87;;;;;;;-145.69;94.54;52606.78;5074923;28;20199;-80
2023/01/16 07:58:20;;;;;;;0.93;0.90;;;;;;;-145.69;95.87;52618.66;5074168;28;20286;-80
2023/01/16 08:00:52;;;;;;;2.20;0.80;;;;;;;-145.69;97.27;52610.75;5074503;28;20195;-80
2023/01/16 08:03:20;;;;;;;0.80;0.80;;;;;;;-145.69;93.15;52638.47;5074731;28;20183;-80
2023/01/16 08:05:47;;;;;;;1.17;0.97;;;;;;;-145.69;93.36;52600.84;5074384;28;20282;-79
2023/01/16 08:08:14;;;;;;;0.73;0.70;;;;;;;-145.69;93.88;52626.59;5074560;28;20291;-80
2023/01/16 08:10:41;;;;;;;1.50;0.83;;;;;;;-145.69;90.16;52630.53;5074022;28;20199;-80
2023/01/16 08:13:07;;;;;;;1.00;0.70;;;;;;;-145.69;88.95;52598.84;5074317;28;20195;-80
2023/01/16 08:15:34;;;;;;;1.30;0.80;;;;;;;-145.69;89.06;52606.78;5074797;28;20230;-80
2023/01/16 08:18:00;;;;;;;1.53;1.10;;;;;;;-145.69;82.70;52614.72;5073907;28;20197;-80
2023/01/16 08:20:31;;;;;;;0.70;0.70;;;;;;;-145.69;82.27;52610.75;5073947;28;20225;-80
2023/01/16 08:22:59;;;;;;;5.43;0.83;;;;;;;-145.69;81.72;52622.63;5073876;28;20203;-80
2023/01/16 08:25:25;;;;;;;5.03;0.80;;;;;;;-145.69;81.61;52614.72;5074338;28;20199;-80
2023/01/16 08:27:51;;;;;;;2.53;0.70;;;;;;;-145.69;79.73;52610.75;5074198;28;20203;-81
2023/01/16 08:30:19;;;;;;;0.60;0.60;;;;;;;-145.69;80.08;52614.72;5073597;28;20195;-80
2023/01/16 08:32:57;;;;;;;4.07;0.80;;;;;;;-145.69;80.81;52626.59;5073338;28;20203;-80
2023/01/16 08:35:23;;;;;;;1.27;0.90;;;;;;;-145.69;82.23;52624.59;5073847;28;20202;-80
2023/01/16 08:37:51;;;;;;;2.37;0.90;;;;;;;-145.69;80.13;52610.75;5073472;28;20665;-80
2023/01/16 08:40:19;;;;;;;1.17;0.70;;;;;;;-145.69;83.58;52614.72;5073564;28;20685;-80
2023/01/16 08:51:23;;;;;;;7.07;0.70;;;;;;;-145.69;85.63;52586.97;5073512;28;20247;-80
2023/01/16 08:53:52;;;;;;;2.87;0.80;;;;;;;-145.69;81.90;52610.75;5073860;28;20209;-80
2023/01/16 08:56:22;;;;;;;1.27;0.73;;;;;;;-145.69;82.86;52586.97;5073548;28;20209;-80
2023/01/16 08:58:48;;;;;;;0.80;0.80;;;;;;;-145.69;80.55;52606.78;5073545;28;20230;-80
2023/01/16 09:01:16;;;;;;;1.00;0.50;;;;;;;-145.69;78.70;52618.66;5073592;28;20206;-79
2023/01/16 09:03:42;;;;;;;1.80;0.83;;;;;;;-145.69;81.33;52590.94;5074826;28;20625;-82
2023/01/16 09:06:09;;;;;;;1.30;0.80;;;;;;;-145.69;78.11;52602.81;5073481;28;20201;-80
2023/01/16 09:08:35;;;;;;;0.70;0.70;;;;;;;-145.69;79.35;52602.81;5073049;28;20195;-80
2023/01/16 09:13:50;;;;;;;0.83;0.60;;;;;;;-145.69;77.64;52583.00;5072817;28;20201;-80
2023/01/16 09:16:19;;;;;;;0.90;0.60;;;;;;;-145.69;74.96;52610.75;5073158;28;20199;-79
2023/01/16 09:18:45;;;;;;;0.70;0.70;;;;;;;-145.69;73.79;52583.00;5071793;28;20650;-80
2023/01/16 09:21:12;;;;;;;0.70;0.70;;;;;;;-145.69;72.94;52592.91;5070153;28;20198;-81
2023/01/16 09:23:38;;;;;;;0.60;0.60;;;;;;;-145.69;82.48;52618.66;5073103;28;20210;-80
2023/01/16 09:26:06;;;;;;;1.00;0.87;;;;;;;-145.69;79.80;52581.03;5072822;28;20202;-80
2023/01/16 09:28:33;;;;;;;1.50;0.87;;;;;;;-145.69;83.53;52577.06;5072768;28;20207;-81
2023/01/16 09:31:00;;;;;;;2.30;0.63;;;;;;;-145.69;81.78;52618.66;5072604;28;20614;-81
2023/01/16 09:33:28;;;;;;;0.97;0.70;;;;;;;-145.69;82.41;52583.00;5072962;28;20209;-80
2023/01/16 09:35:55;;;;;;;1.13;0.80;;;;;;;-145.69;82.07;52581.03;5072550;28;20641;-80
2023/01/16 09:38:21;;;;;;;0.73;0.73;;;;;;;-145.69;82.76;52610.75;5072517;28;20543;-81
2023/01/16 09:40:52;;;;;;;2.47;0.77;;;;;;;-145.69;79.18;52588.97;5072602;28;20309;-81
2023/01/16 09:43:35;;;;;;;0.93;0.60;;;;;;;-145.69;78.87;52624.59;5072993;28;20237;-79
2023/01/16 09:46:05;;;;;;;1.20;0.70;;;;;;;-145.69;77.43;52575.09;5073377;28;20259;-81
2023/01/16 09:48:33;;;;;;;2.30;0.60;;;;;;;-145.69;81.79;52563.22;5072884;28;20195;-81
2023/01/16 09:51:04;;;;;;;0.70;0.70;;;;;;;-145.69;82.79;52563.22;5071957;28;20625;-81
2023/01/16 09:59:35;;;;;;;2.47;0.77;;;;;;;-145.69;79.75;52586.97;5072509;28;20355;-79
2023/01/16 10:02:14;;;;;;;0.77;0.70;;;;;;;-145.69;81.06;52551.31;5070174;28;20206;-81
2023/01/16 10:04:43;;;;;;;1.00;0.80;;;;;;;-145.69;75.46;52563.22;5053822;28;20199;-80
2023/01/16 10:07:47;;;;;;;1.37;0.80;;;;;;;-145.69;76.30;52604.81;5055454;28;20290;-80
2023/01/16 10:10:33;;;;;;;1.37;0.80;;;;;;;-145.69;80.24;52622.63;5054377;28;20231;-80
2023/01/16 10:13:12;;;;;;;1.70;0.67;;;;;;;-145.69;81.11;52585.00;5054501;28;20211;-81
2023/01/16 10:15:49;;;;;;;8.87;0.77;;;;;;;-145.69;78.66;52547.38;5052672;28;20207;-80
2023/01/16 10:18:27;;;;;;;1.10;0.80;;;;;;;-145.69;80.83;52579.06;5052805;28;20206;-79
2023/01/16 10:21:23;;;;;;;1.20;0.97;;;;;;;-145.69;83.36;52575.09;5053973;28;20578;-81
2023/01/16 10:23:54;;;;;;;4.33;0.70;;;;;;;-145.69;91.66;52585.00;5052637;28;20282;-79
2023/01/16 10:26:29;;;;;;;0.53;0.53;;;;;;;-145.69;90.71;52594.91;5063235;28;20533;-82
2023/01/16 10:29:02;;;;;;;1.10;1.00;;;;;;;-145.69;99.27;52590.94;5052667;28;20199;-78
2023/01/16 10:31:39;;;;;;;2.53;1.03;;;;;;;-145.69;98.15;52585.00;5055456;28;20199;-79
2023/01/16 10:34:11;;;;;;;1.83;0.80;;;;;;;-145.69;100.00;52614.72;5056739;28;20206;-82
2023/01/16 10:36:45;;;;;;;2.00;0.80;;;;;;;-145.69;100.00;52590.94;5056542;28;20203;-77
2023/01/16 10:39:13;;;;;;;0.77;0.73;;;;;;;-145.69;100.00;52537.47;5067744;28;20635;-77
2023/01/16 10:50:09;;;;;;;1.80;0.77;;;;;;;-145.69;100.00;52575.09;5075027;28;20263;-78
2023/01/16 10:52:38;;;;;;;1.40;1.00;;;;;;;-145.69;100.00;52585.00;5075724;28;20195;-78
2023/01/16 10:55:07;;;;;;;1.83;0.90;;;;;;;-145.69;100.00;52622.63;5075185;28;20206;-78
2023/01/16 10:57:37;;;;;;;1.60;1.20;;;;;;;-145.69;100.00;52632.53;5075572;28;20203;-78
2023/01/16 11:00:07;;;;;;;1.80;0.90;;;;;;;-145.69;100.00;52604.81;5075395;28;20585;-78
2023/01/16 11:02:40;;;;;;;0.77;0.77;;;;;;;-145.69;100.00;52626.59;5075551;28;20198;-80
2023/01/16 11:05:25;;;;;;;1.03;0.80;;;;;;;-145.69;100.00;52579.06;5075043;28;20202;-78
2023/01/16 11:07:53;;;;;;;2.57;1.10;;;;;;;-145.69;100.00;52579.06;5075217;28;20650;-77
2023/01/16 11:10:21;;;;;;;2.23;0.70;;;;;;;-145.69;100.00;52614.72;5075202;28;20222;-77
2023/01/16 11:18:30;;;;;;;0.87;0.83;;;;;;;-145.69;100.00;52634.50;5075319;28;20206;-78
2023/01/16 11:21:00;;;;;;;1.47;0.90;;;;;;;-145.69;100.00;52608.75;5066945;28;20231;-79
2023/01/16 11:23:36;;;;;;;3.63;0.80;;;;;;;-145.69;100.00;52630.53;5055325;28;20200;-80
2023/01/16 11:26:03;;;;;;;0.97;0.87;;;;;;;-145.69;100.00;52571.13;5068891;28;20225;-79
2023/01/16 11:28:32;;;;;;;0.63;0.60;;;;;;;-145.69;100.00;52594.91;5075224;28;20199;-80
2023/01/16 11:31:03;;;;;;;3.73;1.10;;;;;;;-145.69;100.00;52634.50;5074913;28;20203;-79
2023/01/16 11:33:45;;;;;;;1.37;0.70;;;;;;;-145.69;100.00;52602.81;5076820;28;20194;-78
2023/01/16 11:36:16;;;;;;;0.60;0.60;;;;;;;-145.69;100.00;52590.94;5075016;28;20289;-79
2023/01/16 11:38:46;;;;;;;1.40;0.97;;;;;;;-145.69;100.00;52594.91;5074772;28;20294;-78
2023/01/16 11:41:16;;;;;;;0.80;0.80;;;;;;;-145.69;100.00;52594.91;5074203;28;20611;-81
2023/01/16 11:46:34;;;;;;;1.47;0.80;;;;;;;-145.69;100.00;52590.94;5075032;28;20206;-80
2023/01/16 11:49:04;;;;;;;0.90;0.80;;;;;;;-145.69;100.00;52590.94;5075484;28;20581;-81
2023/01/16 11:51:33;;;;;;;2.17;0.80;;;;;;;-145.69;100.00;52598.84;5075442;28;20676;-79
2023/01/16 11:54:03;;;;;;;0.70;0.70;;;;;;;-145.69;100.00;52606.78;5074698;28;20199;-77
2023/01/16 11:56:46;;;;;;;0.93;0.87;;;;;;;-145.69;100.00;52610.75;5072527;28;20857;-79
2023/01/16 11:59:31;;;;;;;1.27;0.77;;;;;;;-145.69;100.00;52571.13;5074372;28;20302;-76
2023/01/16 12:02:19;;;;;;;1.00;0.90;;;;;;;-145.69;100.00;52628.56;5074464;28;20207;-76
2023/01/16 12:07:57;;;;;;;0.80;0.70;;;;;;;-145.69;100.00;52569.16;5074214;28;20205;-79
2023/01/16 12:10:39;;;;;;;2.60;0.97;;;;;;;-145.69;100.00;52606.78;5074281;28;20209;-80
2023/01/16 12:16:13;;;;;;;1.70;1.00;;;;;;;-145.69;100.00;52596.88;5074017;28;20244;-80